Amanda Park, Washington
Current Conditions -  °F | °C
As of 4:02 AM on Thursday 18 Dec 2014 (Local Time) from KHQM Reporting Station
Haze Haze  
Wind Chill: 40°   Ceiling: Unl
Heat Index: 44°   Visibility: 6mi
Dew Point: 43°   Wind: 7mph
Humidity: 96%   Direction: 60°ENE
Pressure: 29.91"   Gusts: NA
Location:  47.46°N, 123.89°W
Report Text: KHQM 181202Z AUTO 06006KT 6SM BR SCT028 07/06 A2991 RMK AO2 T00670061
Loading
Personal Weather Stations






























Interactive Weather Map New forecast layout! Learn more

10-Day Weather Forecast

Advertisements
Track Severe Weather on mobile